createdAt,value
2023-03-20T00:03:06.476Z,100958.28
2023-03-20T00:07:18.826Z,100951.31
2023-03-20T00:11:41.597Z,100952.28
2023-03-20T00:15:55.077Z,100942.56
2023-03-20T00:20:14.211Z,100941.16
2023-03-20T00:24:26.737Z,100940.16
2023-03-20T00:28:44.487Z,100934.84
2023-03-20T00:32:58.967Z,100931.09
2023-03-20T00:37:12.094Z,100929.31
2023-03-20T00:41:43.544Z,100924.03
2023-03-20T00:45:56.346Z,100920.66
2023-03-20T00:50:21.069Z,100919.56
2023-03-20T00:54:33.676Z,100910.81
2023-03-20T00:58:46.110Z,100913.06
2023-03-20T01:02:59.328Z,100913.72
2023-03-20T01:07:15.156Z,100911.09
2023-03-20T01:11:28.202Z,100903.19
2023-03-20T01:15:41.310Z,100905.56
2023-03-20T01:19:54.084Z,100900.41
2023-03-20T01:24:06.753Z,100896.25
2023-03-20T01:28:24.059Z,100888.25
2023-03-20T01:32:36.472Z,100890.78
2023-03-20T01:36:58.411Z,100898.66
2023-03-20T01:41:15.221Z,100905.56
2023-03-20T01:45:33.579Z,100889.47
2023-03-20T01:50:11.154Z,100898.50
2023-03-20T01:54:38.032Z,100885.56
2023-03-20T01:59:00.630Z,100886.16
2023-03-20T02:03:13.366Z,100875.28
2023-03-20T02:07:51.481Z,100876.75
2023-03-20T02:12:05.220Z,100880.50
2023-03-20T02:16:18.436Z,100887.84
2023-03-20T02:20:55.808Z,100883.75
2023-03-20T02:25:17.719Z,100886.94
2023-03-20T02:29:50.987Z,100884.03
2023-03-20T02:34:20.751Z,100883.16
2023-03-20T02:39:06.834Z,100876.13
2023-03-20T02:43:39.367Z,100870.72
2023-03-20T02:48:25.054Z,100873.38
2023-03-20T02:53:13.099Z,100877.13
2023-03-20T02:58:06.114Z,100867.44
2023-03-20T03:02:28.046Z,100862.09
2023-03-20T03:06:45.153Z,100862.78
2023-03-20T03:11:08.975Z,100851.44
2023-03-20T03:15:30.786Z,100852.25
2023-03-20T03:19:50.311Z,100849.53
2023-03-20T03:24:03.053Z,100834.38
2023-03-20T03:28:37.873Z,100838.00
2023-03-20T03:33:02.732Z,100836.22
2023-03-20T03:37:29.738Z,100831.63
2023-03-20T03:41:48.453Z,100828.16
2023-03-20T03:46:14.402Z,100828.94
2023-03-20T03:50:31.969Z,100842.25
2023-03-20T03:54:49.919Z,100854.66
2023-03-20T03:59:25.025Z,100860.78
2023-03-20T04:03:56.520Z,100858.59
2023-03-20T04:08:09.315Z,100859.22
2023-03-20T04:12:37.028Z,100855.44
2023-03-20T04:16:51.069Z,100843.94
2023-03-20T04:21:04.638Z,100852.97
2023-03-20T04:25:23.295Z,100825.69
2023-03-20T04:29:39.350Z,100842.47
2023-03-20T04:34:14.655Z,100836.50
2023-03-20T04:38:51.236Z,100832.84
2023-03-20T04:43:03.942Z,100841.63
2023-03-20T04:47:17.068Z,100827.38
2023-03-20T04:51:29.737Z,100825.22
2023-03-20T04:55:44.425Z,100823.16
2023-03-20T04:59:57.990Z,100826.41
2023-03-20T05:04:10.765Z,100820.16
2023-03-20T05:08:23.197Z,100815.03
2023-03-20T05:12:39.921Z,100813.41
2023-03-20T05:17:12.928Z,100801.97
2023-03-20T05:21:48.090Z,100812.66
2023-03-20T05:26:18.765Z,100816.00
2023-03-20T05:30:49.888Z,100817.03
2023-03-20T05:35:25.377Z,100815.41
2023-03-20T05:39:44.600Z,100826.84
2023-03-20T05:44:13.105Z,100838.19
2023-03-20T05:48:35.642Z,100835.69
2023-03-20T05:53:00.106Z,100840.09
2023-03-20T05:57:28.549Z,100836.69
2023-03-20T06:01:50.139Z,100848.38
2023-03-20T06:06:09.268Z,100863.59
2023-03-20T06:10:22.488Z,100857.69
2023-03-20T06:14:36.522Z,100850.00
2023-03-20T06:18:52.818Z,100850.22
2023-03-20T06:23:05.627Z,100848.59
2023-03-20T06:27:18.415Z,100849.63
2023-03-20T06:31:33.901Z,100854.06
2023-03-20T06:35:48.631Z,100860.38
2023-03-20T06:40:01.217Z,100864.84
2023-03-20T06:44:15.614Z,100874.59
2023-03-20T06:48:51.922Z,100879.84
2023-03-20T06:53:07.273Z,100871.88
2023-03-20T06:57:27.680Z,100869.16
2023-03-20T07:01:40.748Z,100881.53
2023-03-20T07:05:53.310Z,100881.41
2023-03-20T07:10:08.163Z,100878.63
2023-03-20T07:14:20.781Z,100876.16
2023-03-20T07:18:47.406Z,100878.66
2023-03-20T07:23:00.108Z,100882.09
2023-03-20T07:27:16.777Z,100887.81
2023-03-20T07:31:31.488Z,100882.63
2023-03-20T07:36:07.166Z,100877.63
2023-03-20T07:40:19.894Z,100872.09
2023-03-20T07:44:39.155Z,100875.56
2023-03-20T07:48:58.432Z,100885.59
2023-03-20T07:53:10.902Z,100892.81
2023-03-20T07:57:23.303Z,100883.44
2023-03-20T08:01:35.777Z,100874.53
2023-03-20T08:05:48.089Z,100875.50
2023-03-20T08:10:00.570Z,100870.97
2023-03-20T08:14:13.365Z,100874.19
2023-03-20T08:18:25.780Z,100869.22
2023-03-20T08:22:38.243Z,100873.34
2023-03-20T08:26:50.719Z,100860.50
2023-03-20T08:31:04.143Z,100863.56
2023-03-20T08:35:32.166Z,100866.84
2023-03-20T08:39:47.525Z,100854.78
2023-03-20T08:44:01.842Z,100873.44
2023-03-20T08:48:14.263Z,100868.75
2023-03-20T08:52:27.761Z,100867.06
2023-03-20T08:56:40.167Z,100873.31
2023-03-20T09:00:52.450Z,100864.00
2023-03-20T09:05:05.065Z,100855.50
2023-03-20T09:09:20.281Z,100858.25
2023-03-20T09:13:32.693Z,100854.09
2023-03-20T09:17:45.160Z,100841.44
2023-03-20T09:21:57.685Z,100836.88
2023-03-20T09:26:10.107Z,100821.03
2023-03-20T09:30:24.215Z,100821.78
2023-03-20T09:34:36.570Z,100818.03
2023-03-20T09:38:49.205Z,100817.81
2023-03-20T09:43:27.288Z,100801.31
2023-03-20T09:48:17.276Z,100806.50
2023-03-20T09:52:35.004Z,100795.34
2023-03-20T09:56:47.490Z,100784.72
2023-03-20T10:01:03.319Z,100773.31
2023-03-20T10:05:39.453Z,100777.97
2023-03-20T10:09:51.842Z,100768.41
2023-03-20T10:14:19.016Z,100763.25
2023-03-20T10:18:36.598Z,100751.72
2023-03-20T10:22:55.037Z,100754.00
2023-03-20T10:27:21.357Z,100750.47
2023-03-20T10:31:52.200Z,100758.19
2023-03-20T10:36:34.208Z,100747.13
2023-03-20T10:40:47.636Z,100740.63
2023-03-20T10:45:19.944Z,100738.72
2023-03-20T10:49:42.436Z,100747.31
2023-03-20T10:54:01.624Z,100739.50
2023-03-20T10:58:37.682Z,100722.41
2023-03-20T11:02:50.296Z,100724.00
2023-03-20T11:07:24.177Z,100712.91
2023-03-20T11:11:36.703Z,100707.78
2023-03-20T11:15:49.067Z,100704.94
2023-03-20T11:20:06.129Z,100711.00
2023-03-20T11:24:27.082Z,100698.22
2023-03-20T11:28:48.519Z,100703.75
2023-03-20T11:33:03.702Z,100701.00
2023-03-20T11:37:35.937Z,100690.53
2023-03-20T11:41:52.467Z,100695.47
2023-03-20T11:46:06.675Z,100686.34
2023-03-20T11:50:36.946Z,100698.78
2023-03-20T11:54:53.388Z,100704.31
2023-03-20T11:59:18.536Z,100689.59
2023-03-20T12:03:56.078Z,100692.75
2023-03-20T12:08:20.439Z,100695.34
2023-03-20T12:12:45.942Z,100701.25
2023-03-20T12:17:13.059Z,100704.13
2023-03-20T12:21:41.417Z,100684.03
2023-03-20T12:26:14.017Z,100684.84
2023-03-20T12:30:51.867Z,100681.16
2023-03-20T12:35:25.366Z,100669.06
2023-03-20T12:39:42.732Z,100659.16
2023-03-20T12:44:10.191Z,100670.03
2023-03-20T12:48:56.685Z,100651.19
2023-03-20T12:53:33.250Z,100650.34
2023-03-20T12:58:03.999Z,100639.88
2023-03-20T13:02:40.642Z,100640.69
2023-03-20T13:06:55.070Z,100634.41
2023-03-20T13:11:31.510Z,100636.91
2023-03-20T13:15:59.158Z,100632.50
2023-03-20T13:20:33.008Z,100637.22
2023-03-20T13:24:50.920Z,100637.84
2023-03-20T13:29:08.932Z,100639.00
2023-03-20T13:33:27.187Z,100635.72
2023-03-20T13:37:47.837Z,100633.16
2023-03-20T13:42:02.081Z,100635.97
2023-03-20T13:46:39.876Z,100639.53
2023-03-20T13:51:15.629Z,100636.09
2023-03-20T13:55:36.970Z,100643.63
2023-03-20T14:00:09.234Z,100648.88
2023-03-20T14:04:24.460Z,100639.16
2023-03-20T14:08:37.239Z,100640.53
2023-03-20T14:12:59.162Z,100642.56
2023-03-20T14:17:26.974Z,100644.66
2023-03-20T14:21:39.394Z,100649.13
2023-03-20T14:25:55.343Z,100636.44
2023-03-20T14:30:46.628Z,100647.28
2023-03-20T14:35:28.137Z,100653.19
2023-03-20T14:39:57.712Z,100655.84
2023-03-20T14:44:36.443Z,100652.84
2023-03-20T14:48:53.571Z,100656.81
2023-03-20T14:53:21.534Z,100652.09
2023-03-20T14:57:52.843Z,100639.97
2023-03-20T15:02:06.969Z,100644.97
2023-03-20T15:06:22.981Z,100634.41
2023-03-20T15:10:44.261Z,100629.47
2023-03-20T15:15:01.652Z,100622.28
2023-03-20T15:19:19.390Z,100619.28
2023-03-20T15:23:34.553Z,100616.88
2023-03-20T15:27:52.093Z,100604.06
2023-03-20T15:32:14.381Z,100598.00
2023-03-20T15:36:35.067Z,100606.50
2023-03-20T15:40:51.496Z,100603.44
2023-03-20T15:45:22.477Z,100604.25
2023-03-20T15:49:35.000Z,100609.84
2023-03-20T15:53:51.602Z,100606.44
2023-03-20T15:58:06.039Z,100612.47
2023-03-20T16:02:21.517Z,100602.72
2023-03-20T16:06:46.819Z,100600.22
2023-03-20T16:11:17.049Z,100597.75
2023-03-20T16:15:32.987Z,100596.88
2023-03-20T16:19:46.366Z,100590.78
2023-03-20T16:24:01.840Z,100595.28
2023-03-20T16:28:17.257Z,100590.06
2023-03-20T16:32:39.533Z,100580.50
2023-03-20T16:36:57.879Z,100589.44
2023-03-20T16:41:34.138Z,100598.47
2023-03-20T16:45:55.337Z,100600.31
2023-03-20T16:50:24.678Z,100605.69
2023-03-20T16:54:37.544Z,100600.41
2023-03-20T16:58:50.080Z,100597.84
2023-03-20T17:03:17.738Z,100614.88
2023-03-20T17:07:34.543Z,100619.41
2023-03-20T17:11:51.890Z,100621.25
2023-03-20T17:16:04.592Z,100630.31
2023-03-20T17:20:24.894Z,100635.69
2023-03-20T17:24:37.374Z,100637.47
2023-03-20T17:28:49.977Z,100625.16
2023-03-20T17:33:06.143Z,100618.16
2023-03-20T17:37:25.363Z,100617.28
2023-03-20T17:41:38.573Z,100611.16
2023-03-20T17:45:51.071Z,100607.59
2023-03-20T17:50:03.514Z,100594.34
2023-03-20T17:54:16.757Z,100596.19
2023-03-20T17:58:29.346Z,100596.19
2023-03-20T18:02:41.679Z,100596.25
2023-03-20T18:06:54.260Z,100601.66
2023-03-20T18:11:08.456Z,100591.09
2023-03-20T18:15:24.138Z,100589.47
2023-03-20T18:19:36.640Z,100611.78
2023-03-20T18:23:49.003Z,100611.00
2023-03-20T18:28:02.806Z,100614.63
2023-03-20T18:32:15.309Z,100616.66
2023-03-20T18:36:28.292Z,100606.19
2023-03-20T18:40:42.928Z,100609.91
2023-03-20T18:44:55.367Z,100616.31
2023-03-20T18:49:10.661Z,100620.88
2023-03-20T18:53:23.261Z,100618.97
2023-03-20T18:57:36.866Z,100623.38
2023-03-20T19:01:49.673Z,100612.72
2023-03-20T19:06:02.148Z,100598.50
2023-03-20T19:10:41.621Z,100595.81
2023-03-20T19:14:53.990Z,100587.84
2023-03-20T19:19:08.047Z,100602.94
2023-03-20T19:23:23.524Z,100615.53
2023-03-20T19:27:36.122Z,100605.84
2023-03-20T19:31:48.613Z,100603.19
2023-03-20T19:36:04.376Z,100593.19
2023-03-20T19:40:28.878Z,100604.78
2023-03-20T19:44:41.504Z,100601.16
2023-03-20T19:48:57.834Z,100602.81
2023-03-20T19:53:15.739Z,100587.69
2023-03-20T19:57:29.191Z,100590.31
2023-03-20T20:01:41.643Z,100588.53
2023-03-20T20:05:54.553Z,100560.06
2023-03-20T20:10:07.448Z,100577.75
2023-03-20T20:14:23.638Z,100569.03
2023-03-20T20:18:36.830Z,100552.19
2023-03-20T20:22:49.970Z,100547.75
2023-03-20T20:27:16.280Z,100564.59
2023-03-20T20:31:32.035Z,100551.38
2023-03-20T20:36:11.489Z,100544.25
2023-03-20T20:40:19.415Z,100537.09
2023-03-20T20:44:31.956Z,100536.25
2023-03-20T20:48:44.338Z,100538.03
2023-03-20T20:52:58.059Z,100535.41
2023-03-20T20:57:12.274Z,100525.63
2023-03-20T21:01:24.828Z,100507.03
2023-03-20T21:05:43.219Z,100518.53
2023-03-20T21:09:55.854Z,100526.50
2023-03-20T21:14:08.232Z,100533.59
2023-03-20T21:18:21.134Z,100538.91
2023-03-20T21:22:36.433Z,100539.81
2023-03-20T21:26:50.700Z,100548.72
2023-03-20T21:31:24.152Z,100563.84
2023-03-20T21:35:38.667Z,100580.69
2023-03-20T21:39:52.553Z,100593.19
2023-03-20T21:44:06.838Z,100606.63
2023-03-20T21:48:50.034Z,100600.47
2023-03-20T21:53:49.672Z,100605.78
2023-03-20T22:02:10.899Z,100601.41
2023-03-20T22:11:45.256Z,100603.22
2023-03-20T22:16:16.680Z,100603.84
2023-03-20T22:25:28.279Z,100617.09
2023-03-20T22:29:58.642Z,100621.59
2023-03-20T22:43:28.069Z,100593.59
2023-03-20T22:47:26.027Z,100590.84
2023-03-20T22:51:44.200Z,100599.63
2023-03-20T22:56:12.283Z,100591.66
2023-03-20T23:00:25.026Z,100605.88
2023-03-20T23:04:37.512Z,100601.44
2023-03-20T23:08:56.579Z,100589.00
2023-03-20T23:13:09.748Z,100581.91
2023-03-20T23:17:22.547Z,100591.69
2023-03-20T23:21:35.579Z,100599.66
2023-03-20T23:25:48.995Z,100604.03
2023-03-20T23:30:03.658Z,100599.63
2023-03-20T23:34:17.969Z,100591.66
2023-03-20T23:38:32.693Z,100589.91
2023-03-20T23:42:45.051Z,100593.47
2023-03-20T23:46:57.781Z,100575.75
2023-03-20T23:51:11.051Z,100574.00
2023-03-20T23:55:23.394Z,100562.41
2023-03-20T23:59:37.563Z,100549.09
